createdAt,value
2023-03-10T00:01:16.689Z,3.33
2023-03-10T00:03:44.671Z,2.90
2023-03-10T00:06:13.854Z,1.47
2023-03-10T00:08:41.078Z,1.27
2023-03-10T00:11:08.163Z,3.47
2023-03-10T00:13:35.385Z,1.47
2023-03-10T00:16:02.570Z,1.37
2023-03-10T00:18:29.519Z,2.57
2023-03-10T00:20:56.219Z,2.63
2023-03-10T00:23:23.012Z,1.43
2023-03-10T00:25:57.638Z,2.47
2023-03-10T00:28:25.663Z,4.20
2023-03-10T00:31:00.652Z,2.77
2023-03-10T00:33:27.767Z,1.47
2023-03-10T00:36:08.429Z,3.80
2023-03-10T00:38:36.404Z,3.63
2023-03-10T00:41:10.486Z,3.13
2023-03-10T00:43:38.460Z,2.53
2023-03-10T00:46:05.997Z,1.50
2023-03-10T00:48:32.957Z,1.97
2023-03-10T00:50:59.686Z,2.97
2023-03-10T00:53:26.711Z,1.70
2023-03-10T00:56:04.423Z,1.50
2023-03-10T00:58:32.592Z,3.97
2023-03-10T01:01:01.062Z,1.70
2023-03-10T01:03:28.638Z,4.83
2023-03-10T01:05:58.162Z,2.47
2023-03-10T01:08:25.293Z,1.93
2023-03-10T01:10:52.182Z,4.60
2023-03-10T01:13:19.825Z,3.47
2023-03-10T01:15:50.914Z,6.60
2023-03-10T01:18:19.276Z,3.00
2023-03-10T01:20:48.017Z,6.37
2023-03-10T01:23:24.325Z,7.03
2023-03-10T01:25:51.647Z,2.57
2023-03-10T01:28:19.857Z,6.03
2023-03-10T01:30:46.980Z,2.47
2023-03-10T01:33:13.775Z,5.67
2023-03-10T01:35:40.804Z,6.23
2023-03-10T01:38:08.264Z,4.20
2023-03-10T01:40:36.152Z,6.03
2023-03-10T01:43:22.026Z,12.33
2023-03-10T01:45:48.993Z,6.43
2023-03-10T01:48:17.823Z,12.40
2023-03-10T01:50:47.212Z,9.30
2023-03-10T01:53:15.359Z,5.63
2023-03-10T01:55:46.592Z,7.13
2023-03-10T01:58:15.842Z,8.43
2023-03-10T02:00:43.443Z,3.73
2023-03-10T02:03:20.427Z,6.53
2023-03-10T02:05:55.281Z,8.27
2023-03-10T02:08:23.771Z,7.83
2023-03-10T02:10:51.565Z,6.40
2023-03-10T02:13:18.573Z,7.80
2023-03-10T02:15:46.166Z,8.50
2023-03-10T02:18:14.724Z,11.20
2023-03-10T02:20:51.499Z,12.50
2023-03-10T02:24:04.195Z,10.17
2023-03-10T02:26:33.928Z,7.27
2023-03-10T02:29:02.178Z,6.67
2023-03-10T02:31:29.930Z,9.27
2023-03-10T02:33:57.386Z,8.73
2023-03-10T02:36:24.825Z,5.90
2023-03-10T02:38:52.240Z,6.10
2023-03-10T02:41:28.868Z,9.63
2023-03-10T02:43:58.453Z,9.90
2023-03-10T02:46:27.652Z,10.63
2023-03-10T02:48:55.865Z,7.53
2023-03-10T02:51:34.092Z,6.07
2023-03-10T02:54:06.221Z,7.03
2023-03-10T02:56:34.292Z,7.87
2023-03-10T02:59:01.459Z,6.20
2023-03-10T03:01:30.406Z,8.70
2023-03-10T03:03:57.922Z,10.07
2023-03-10T03:06:26.202Z,7.57
2023-03-10T03:08:53.116Z,12.60
2023-03-10T03:11:22.244Z,9.50
2023-03-10T03:13:49.212Z,9.40
2023-03-10T03:16:16.224Z,10.33
2023-03-10T03:18:45.185Z,14.33
2023-03-10T03:21:18.132Z,14.50
2023-03-10T03:23:47.288Z,8.90
2023-03-10T03:26:27.268Z,11.03
2023-03-10T03:29:14.349Z,11.07
2023-03-10T03:31:41.866Z,12.93
2023-03-10T03:34:20.791Z,12.20
2023-03-10T03:36:50.336Z,12.70
2023-03-10T03:39:22.721Z,14.40
2023-03-10T03:41:57.242Z,9.47
2023-03-10T03:44:28.017Z,15.27
2023-03-10T03:46:55.831Z,16.13
2023-03-10T03:49:23.763Z,11.43
2023-03-10T03:51:50.845Z,16.03
2023-03-10T03:54:18.167Z,11.00
2023-03-10T03:56:45.129Z,14.27
2023-03-10T03:59:13.923Z,12.30
2023-03-10T04:01:41.334Z,20.47
2023-03-10T04:04:09.106Z,9.40
2023-03-10T04:06:36.439Z,8.40
2023-03-10T04:09:05.004Z,12.33
2023-03-10T04:11:33.617Z,14.87
2023-03-10T04:14:00.719Z,9.30
2023-03-10T04:16:28.093Z,7.97
2023-03-10T04:18:54.819Z,8.40
2023-03-10T04:21:21.659Z,8.33
2023-03-10T04:23:51.267Z,4.97
2023-03-10T04:26:23.991Z,4.23
2023-03-10T04:28:51.104Z,7.10
2023-03-10T04:31:19.853Z,7.20
2023-03-10T04:33:48.183Z,7.47
2023-03-10T04:36:15.774Z,7.23
2023-03-10T04:38:45.028Z,4.77
2023-03-10T04:41:12.154Z,6.63
2023-03-10T04:43:43.273Z,5.77
2023-03-10T04:46:12.593Z,4.97
2023-03-10T04:48:40.477Z,5.67
2023-03-10T04:51:10.059Z,6.03
2023-03-10T04:53:42.119Z,6.53
2023-03-10T04:56:11.036Z,5.07
2023-03-10T04:58:39.357Z,3.10
2023-03-10T05:01:11.437Z,4.27
2023-03-10T05:03:43.023Z,5.50
2023-03-10T05:06:16.209Z,3.30
2023-03-10T05:08:47.888Z,2.50
2023-03-10T05:11:16.563Z,5.87
2023-03-10T05:13:43.717Z,4.97
2023-03-10T05:16:22.323Z,6.43
2023-03-10T05:18:50.510Z,6.00
2023-03-10T05:21:22.518Z,4.53
2023-03-10T05:23:50.911Z,4.70
2023-03-10T05:26:19.164Z,4.83
2023-03-10T05:28:46.547Z,5.07
2023-03-10T05:31:16.874Z,4.20
2023-03-10T05:33:46.759Z,5.50
2023-03-10T05:36:14.935Z,9.53
2023-03-10T05:38:44.078Z,4.87
2023-03-10T05:41:13.781Z,9.03
2023-03-10T05:43:41.904Z,5.60
2023-03-10T05:46:11.798Z,4.87
2023-03-10T05:48:44.572Z,4.30
2023-03-10T05:51:12.402Z,4.40
2023-03-10T05:53:40.763Z,2.73
2023-03-10T05:56:15.593Z,4.50
2023-03-10T05:58:44.228Z,2.77
2023-03-10T06:01:13.081Z,4.33
2023-03-10T06:03:40.138Z,6.53
2023-03-10T06:06:07.526Z,5.90
2023-03-10T06:08:34.711Z,8.33
2023-03-10T06:11:01.564Z,4.87
2023-03-10T06:13:28.888Z,10.17
2023-03-10T06:15:58.654Z,8.50
2023-03-10T06:18:26.036Z,6.57
2023-03-10T06:20:53.803Z,8.97
2023-03-10T06:23:21.624Z,8.50
2023-03-10T06:26:01.532Z,7.20
2023-03-10T06:28:33.105Z,6.93
2023-03-10T06:31:08.376Z,7.63
2023-03-10T06:33:36.002Z,6.23
2023-03-10T06:36:03.221Z,10.70
2023-03-10T06:38:30.889Z,6.47
2023-03-10T06:40:58.805Z,13.00
2023-03-10T06:43:25.969Z,7.33
2023-03-10T06:45:52.713Z,9.40
2023-03-10T06:48:20.054Z,8.93
2023-03-10T06:50:49.356Z,11.20
2023-03-10T06:53:18.316Z,9.63
2023-03-10T06:55:45.364Z,7.73
2023-03-10T06:58:12.250Z,14.83
2023-03-10T07:00:39.760Z,9.30
2023-03-10T07:03:06.769Z,11.80
2023-03-10T07:05:33.584Z,9.43
2023-03-10T07:08:00.327Z,15.13
2023-03-10T07:10:27.167Z,5.47
2023-03-10T07:12:56.689Z,10.33
2023-03-10T07:15:23.473Z,14.20
2023-03-10T07:17:50.342Z,10.83
2023-03-10T07:20:18.111Z,11.40
2023-03-10T07:22:44.836Z,9.43
2023-03-10T07:25:12.264Z,12.17
2023-03-10T07:27:39.183Z,15.67
2023-03-10T07:30:06.944Z,10.20
2023-03-10T07:32:33.738Z,10.27
2023-03-10T07:35:00.674Z,11.30
2023-03-10T07:37:27.652Z,15.40
2023-03-10T07:39:55.335Z,9.67
2023-03-10T07:42:22.209Z,19.10
2023-03-10T07:44:48.969Z,10.27
2023-03-10T07:47:15.681Z,8.97
2023-03-10T07:49:46.823Z,13.37
2023-03-10T07:52:15.382Z,15.67
2023-03-10T07:54:44.206Z,16.20
2023-03-10T07:57:12.891Z,11.00
2023-03-10T07:59:40.364Z,15.53
2023-03-10T08:02:07.394Z,13.50
2023-03-10T08:04:34.221Z,10.93
2023-03-10T08:07:02.273Z,10.07
2023-03-10T08:09:29.745Z,9.17
2023-03-10T08:11:58.435Z,6.80
2023-03-10T08:14:25.861Z,11.80
2023-03-10T08:16:53.209Z,6.97
2023-03-10T08:19:20.074Z,10.13
2023-03-10T08:21:46.876Z,15.17
2023-03-10T08:24:13.610Z,12.33
2023-03-10T08:26:40.426Z,10.73
2023-03-10T08:29:07.079Z,12.67
2023-03-10T08:31:33.975Z,12.57
2023-03-10T08:34:00.736Z,10.40
2023-03-10T08:36:30.247Z,8.73
2023-03-10T08:39:00.309Z,14.33
2023-03-10T08:41:32.670Z,10.67
2023-03-10T08:44:00.316Z,8.80
2023-03-10T08:46:28.948Z,6.63
2023-03-10T08:48:56.087Z,5.33
2023-03-10T08:51:23.493Z,8.70
2023-03-10T08:53:51.231Z,11.53
2023-03-10T08:56:20.381Z,9.27
2023-03-10T08:58:47.741Z,8.73
2023-03-10T09:01:15.967Z,10.47
2023-03-10T09:03:44.224Z,11.87
2023-03-10T09:06:11.213Z,6.27
2023-03-10T09:08:39.771Z,8.80
2023-03-10T09:11:06.744Z,3.97
2023-03-10T09:13:33.440Z,10.93
2023-03-10T09:16:00.333Z,6.03
2023-03-10T09:18:27.702Z,6.27
2023-03-10T09:20:54.484Z,6.00
2023-03-10T09:23:21.553Z,2.87
2023-03-10T09:25:48.545Z,7.10
2023-03-10T09:28:18.589Z,5.50
2023-03-10T09:31:03.994Z,3.80
2023-03-10T09:34:02.305Z,3.47
2023-03-10T09:36:32.249Z,5.90
2023-03-10T09:39:00.395Z,4.93
2023-03-10T09:41:39.462Z,1.67
2023-03-10T09:44:24.728Z,2.17
2023-03-10T09:47:26.809Z,5.10
2023-03-10T09:50:02.731Z,2.17
2023-03-10T09:52:48.121Z,2.97
2023-03-10T09:55:21.116Z,7.00
2023-03-10T09:57:54.413Z,5.13
2023-03-10T10:00:39.169Z,3.10
2023-03-10T10:03:53.374Z,4.00
2023-03-10T10:06:39.894Z,4.13
2023-03-10T10:09:33.027Z,2.53
2023-03-10T10:12:11.428Z,1.97
2023-03-10T10:14:42.671Z,0.70
2023-03-10T10:17:52.361Z,1.07
2023-03-10T10:20:33.750Z,1.23
2023-03-10T10:23:02.619Z,2.70
2023-03-10T10:25:32.803Z,2.17
2023-03-10T10:28:02.163Z,1.23
2023-03-10T10:30:40.285Z,2.77
2023-03-10T10:33:17.345Z,2.00
2023-03-10T10:36:18.016Z,2.63
2023-03-10T10:38:53.578Z,2.33
2023-03-10T10:41:26.879Z,2.23
2023-03-10T10:43:59.394Z,1.53
2023-03-10T10:46:37.205Z,4.10
2023-03-10T10:49:24.095Z,3.73
2023-03-10T10:52:01.269Z,2.10
2023-03-10T10:54:41.493Z,4.30
2023-03-10T10:57:35.749Z,5.33
2023-03-10T11:00:32.697Z,1.23
2023-03-10T11:03:42.930Z,1.10
2023-03-10T11:06:17.249Z,3.43
2023-03-10T11:08:54.182Z,1.90
2023-03-10T11:11:33.985Z,3.90
2023-03-10T11:14:10.684Z,1.70
2023-03-10T11:16:43.307Z,0.90
2023-03-10T11:19:20.116Z,2.47
2023-03-10T11:21:51.513Z,1.73
2023-03-10T11:24:28.539Z,0.97
2023-03-10T11:27:20.324Z,1.20
2023-03-10T11:30:04.626Z,1.70
2023-03-10T11:32:31.372Z,2.73
2023-03-10T11:34:58.388Z,2.00
2023-03-10T11:37:32.557Z,2.33
2023-03-10T11:40:08.781Z,1.83
2023-03-10T11:42:50.875Z,3.20
2023-03-10T11:45:24.928Z,3.53
2023-03-10T11:47:57.287Z,5.30
2023-03-10T11:50:38.322Z,1.40
2023-03-10T11:53:23.420Z,0.90
2023-03-10T11:55:50.755Z,2.57
2023-03-10T11:58:28.115Z,2.10
2023-03-10T12:00:55.369Z,1.00
2023-03-10T12:03:40.245Z,1.33
2023-03-10T12:06:18.021Z,1.27
2023-03-10T12:08:45.356Z,1.33
2023-03-10T12:11:22.079Z,2.33
2023-03-10T12:13:55.327Z,2.73
2023-03-10T12:16:42.349Z,1.07
2023-03-10T12:19:25.651Z,3.23
2023-03-10T12:22:21.103Z,0.83
2023-03-10T12:24:48.595Z,1.20
2023-03-10T12:27:19.319Z,1.10
2023-03-10T12:29:47.506Z,1.10
2023-03-10T12:32:40.989Z,1.23
2023-03-10T12:35:34.316Z,2.20
2023-03-10T12:38:27.431Z,0.90
2023-03-10T12:40:54.930Z,1.53
2023-03-10T12:43:47.208Z,1.33
2023-03-10T12:46:55.955Z,1.33
2023-03-10T12:49:38.697Z,2.80
2023-03-10T12:52:24.894Z,1.83
2023-03-10T12:54:56.083Z,5.27
2023-03-10T12:57:30.185Z,1.40
2023-03-10T12:59:59.796Z,3.40
2023-03-10T13:02:33.891Z,1.43
2023-03-10T13:05:05.397Z,3.63
2023-03-10T13:07:32.372Z,1.80
2023-03-10T13:10:00.245Z,1.50
2023-03-10T13:12:31.087Z,1.30
2023-03-10T13:15:00.041Z,1.13
2023-03-10T13:17:35.809Z,2.10
2023-03-10T13:20:19.607Z,0.90
2023-03-10T13:22:57.727Z,1.20
2023-03-10T13:25:25.271Z,1.20
2023-03-10T13:27:52.816Z,1.67
2023-03-10T13:30:26.625Z,2.43
2023-03-10T13:33:02.609Z,1.53
2023-03-10T13:35:32.403Z,2.07
2023-03-10T13:38:11.149Z,1.63
2023-03-10T13:40:49.088Z,1.20
2023-03-10T13:43:36.011Z,1.77
2023-03-10T13:46:05.576Z,1.80
2023-03-10T13:48:32.915Z,2.67
2023-03-10T13:51:08.866Z,1.60
2023-03-10T13:53:35.724Z,1.40
2023-03-10T13:56:10.525Z,1.40
2023-03-10T13:58:38.063Z,1.40
2023-03-10T14:01:05.056Z,3.70
2023-03-10T14:03:32.093Z,1.27
2023-03-10T14:05:58.754Z,4.43
2023-03-10T14:08:32.875Z,2.10
2023-03-10T14:11:34.353Z,1.73
2023-03-10T14:14:01.923Z,1.77
2023-03-10T14:17:08.239Z,3.00
2023-03-10T14:19:43.779Z,2.13
2023-03-10T14:22:35.852Z,1.40
2023-03-10T14:25:07.945Z,0.53
2023-03-10T14:27:36.107Z,0.50
2023-03-10T14:30:14.434Z,0.60
2023-03-10T14:32:41.466Z,0.90
2023-03-10T14:35:16.263Z,1.40
2023-03-10T14:37:43.060Z,2.10
2023-03-10T14:40:11.161Z,1.20
2023-03-10T14:42:39.693Z,1.07
2023-03-10T14:45:28.196Z,4.10
2023-03-10T14:48:06.275Z,2.20
2023-03-10T14:51:05.827Z,2.00
2023-03-10T14:53:38.880Z,4.10
2023-03-10T14:56:05.947Z,1.73
2023-03-10T14:58:36.298Z,1.80
2023-03-10T15:01:03.521Z,1.80
2023-03-10T15:03:30.271Z,1.90
2023-03-10T15:05:57.387Z,2.60
2023-03-10T15:08:25.009Z,2.13
2023-03-10T15:10:52.026Z,1.70
2023-03-10T15:13:20.374Z,2.10
2023-03-10T15:15:48.393Z,2.07
2023-03-10T15:18:18.003Z,2.05
2023-03-10T15:20:45.114Z,1.80
2023-03-10T15:23:15.273Z,2.60
2023-03-10T15:25:45.644Z,2.27
2023-03-10T15:28:12.620Z,3.63
2023-03-10T15:30:39.387Z,1.60
2023-03-10T15:33:06.889Z,1.60
2023-03-10T15:35:34.017Z,3.83
2023-03-10T15:38:01.129Z,2.23
2023-03-10T15:40:29.992Z,4.68
2023-03-10T15:42:57.732Z,1.80
2023-03-10T15:45:26.269Z,4.40
2023-03-10T15:47:53.548Z,2.00
2023-03-10T15:50:21.540Z,2.20
2023-03-10T15:52:56.837Z,3.25
2023-03-10T15:55:28.404Z,2.45
2023-03-10T15:57:56.348Z,2.75
2023-03-10T16:00:25.066Z,2.63
2023-03-10T16:02:52.237Z,4.03
2023-03-10T16:05:19.698Z,2.92
2023-03-10T16:07:46.578Z,6.05
2023-03-10T16:10:16.028Z,2.03
2023-03-10T16:12:42.849Z,2.30
2023-03-10T16:15:10.439Z,1.25
2023-03-10T16:17:37.549Z,11.40
2023-03-10T16:20:10.366Z,3.05
2023-03-10T16:22:40.476Z,5.35
2023-03-10T16:25:10.221Z,2.60
2023-03-10T16:27:37.458Z,1.75
2023-03-10T16:30:05.409Z,2.13
2023-03-10T16:32:32.330Z,3.88
2023-03-10T16:35:00.041Z,2.22
2023-03-10T16:37:28.275Z,4.78
2023-03-10T16:39:55.812Z,3.63
2023-03-10T16:42:23.931Z,2.22
2023-03-10T16:44:50.938Z,1.35
2023-03-10T16:47:18.147Z,0.88
2023-03-10T16:49:45.018Z,0.80
2023-03-10T16:52:12.054Z,0.95
2023-03-10T16:54:38.983Z,1.00
2023-03-10T16:57:07.159Z,2.95
2023-03-10T16:59:34.321Z,1.80
2023-03-10T17:02:01.145Z,1.80
2023-03-10T17:04:28.212Z,2.77
2023-03-10T17:06:55.552Z,2.10
2023-03-10T17:09:22.397Z,2.50
2023-03-10T17:11:54.881Z,4.83
2023-03-10T17:14:24.089Z,1.13
2023-03-10T17:16:51.641Z,4.53
2023-03-10T17:19:24.986Z,5.87
2023-03-10T17:21:52.397Z,3.77
2023-03-10T17:24:20.521Z,5.37
2023-03-10T17:26:47.636Z,4.07
2023-03-10T17:29:14.992Z,4.77
2023-03-10T17:31:43.902Z,6.40
2023-03-10T17:34:20.753Z,9.43
2023-03-10T17:36:59.645Z,5.60
2023-03-10T17:39:45.111Z,3.40
2023-03-10T17:42:12.269Z,3.50
2023-03-10T17:44:39.022Z,3.23
2023-03-10T17:47:05.874Z,2.03
2023-03-10T17:49:33.588Z,9.70
2023-03-10T17:52:01.049Z,4.70
2023-03-10T17:54:27.860Z,2.72
2023-03-10T17:56:54.700Z,4.63
2023-03-10T17:59:21.456Z,2.67
2023-03-10T18:01:49.661Z,3.63
2023-03-10T18:04:18.414Z,8.00
2023-03-10T18:06:57.661Z,4.47
2023-03-10T18:09:35.185Z,1.08
2023-03-10T18:12:08.796Z,3.75
2023-03-10T18:14:35.781Z,3.45
2023-03-10T18:17:03.532Z,2.30
2023-03-10T18:19:31.175Z,4.10
2023-03-10T18:22:03.717Z,3.67
2023-03-10T18:24:35.084Z,5.43
2023-03-10T18:27:02.473Z,3.42
2023-03-10T18:29:29.180Z,6.67
2023-03-10T18:31:56.556Z,2.90
2023-03-10T18:34:28.447Z,5.47
2023-03-10T18:37:14.564Z,4.85
2023-03-10T18:39:45.457Z,8.63
2023-03-10T18:42:14.218Z,4.00
2023-03-10T18:44:47.698Z,6.28
2023-03-10T18:47:14.466Z,10.45
2023-03-10T18:49:41.400Z,5.18
2023-03-10T18:52:08.555Z,6.50
2023-03-10T18:54:35.379Z,7.65
2023-03-10T18:57:02.074Z,3.47
2023-03-10T18:59:28.912Z,2.38
2023-03-10T19:01:55.744Z,5.80
2023-03-10T19:04:22.578Z,8.60
2023-03-10T19:06:49.265Z,7.68
2023-03-10T19:09:19.052Z,6.35
2023-03-10T19:11:45.955Z,12.55
2023-03-10T19:14:13.831Z,4.60
2023-03-10T19:16:42.416Z,6.45
2023-03-10T19:19:10.111Z,7.30
2023-03-10T19:21:37.600Z,6.05
2023-03-10T19:24:05.211Z,9.40
2023-03-10T19:26:33.367Z,3.67
2023-03-10T19:29:00.251Z,6.93
2023-03-10T19:31:28.017Z,7.77
2023-03-10T19:33:58.105Z,6.67
2023-03-10T19:36:28.403Z,10.13
2023-03-10T19:38:56.163Z,16.27
2023-03-10T19:41:25.382Z,7.63
2023-03-10T19:46:59.778Z,12.98
2023-03-10T19:49:30.796Z,7.90
2023-03-10T19:51:57.649Z,8.25
2023-03-10T19:54:24.326Z,5.20
2023-03-10T19:56:51.097Z,20.83
2023-03-10T19:59:18.228Z,5.85
2023-03-10T20:01:49.668Z,8.50
2023-03-10T20:04:16.822Z,8.10
2023-03-10T20:06:44.075Z,5.43
2023-03-10T20:09:11.727Z,6.10
2023-03-10T20:11:40.156Z,3.30
2023-03-10T20:14:20.692Z,10.47
2023-03-10T20:17:10.886Z,3.60
2023-03-10T20:19:43.758Z,8.82
2023-03-10T20:22:12.571Z,9.35
2023-03-10T20:24:39.978Z,7.20
2023-03-10T20:27:06.769Z,4.10
2023-03-10T20:29:33.714Z,5.03
2023-03-10T20:32:01.801Z,4.88
2023-03-10T20:34:28.862Z,13.02
2023-03-10T20:36:57.491Z,5.25
2023-03-10T20:39:26.005Z,4.28
2023-03-10T20:41:53.765Z,3.75
2023-03-10T20:44:30.809Z,11.00
2023-03-10T20:47:21.275Z,5.72
2023-03-10T20:49:58.113Z,7.55
2023-03-10T20:52:25.848Z,8.07
2023-03-10T20:54:56.272Z,5.20
2023-03-10T20:57:23.401Z,5.32
2023-03-10T20:59:50.073Z,4.15
2023-03-10T21:02:17.801Z,3.80
2023-03-10T21:04:47.384Z,4.88
2023-03-10T21:07:15.231Z,4.07
2023-03-10T21:09:42.806Z,5.82
2023-03-10T21:12:14.256Z,5.97
2023-03-10T21:14:52.023Z,6.97
2023-03-10T21:17:29.357Z,4.57
2023-03-10T21:20:16.362Z,7.97
2023-03-10T21:22:43.934Z,9.65
2023-03-10T21:25:15.710Z,9.30
2023-03-10T21:27:44.275Z,7.13
2023-03-10T21:30:15.322Z,6.97
2023-03-10T21:32:42.540Z,7.22
2023-03-10T21:35:20.352Z,8.23
2023-03-10T21:37:49.399Z,3.28
2023-03-10T21:40:22.853Z,6.65
2023-03-10T21:42:50.826Z,8.20
2023-03-10T21:45:21.958Z,7.60
2023-03-10T21:47:52.696Z,7.50
2023-03-10T21:50:19.817Z,8.85
2023-03-10T21:52:47.491Z,3.97
2023-03-10T21:55:23.194Z,7.68
2023-03-10T21:57:50.502Z,6.07
2023-03-10T22:00:19.979Z,7.53
2023-03-10T22:02:48.972Z,6.50
2023-03-10T22:05:17.950Z,4.93
2023-03-10T22:07:44.820Z,7.03
2023-03-10T22:10:12.315Z,4.50
2023-03-10T22:12:39.225Z,7.15
2023-03-10T22:15:11.278Z,5.53
2023-03-10T22:17:38.050Z,5.65
2023-03-10T22:20:07.135Z,7.82
2023-03-10T22:22:34.794Z,9.15
2023-03-10T22:25:01.722Z,11.95
2023-03-10T22:27:28.716Z,2.75
2023-03-10T22:29:55.685Z,5.93
2023-03-10T22:32:22.419Z,11.75
2023-03-10T22:34:49.484Z,9.93
2023-03-10T22:37:16.178Z,7.78
2023-03-10T22:39:42.932Z,6.75
2023-03-10T22:42:10.834Z,12.80
2023-03-10T22:44:37.773Z,11.82
2023-03-10T22:47:05.421Z,4.95
2023-03-10T22:49:33.702Z,3.58
2023-03-10T22:52:00.877Z,13.15
2023-03-10T22:54:28.598Z,5.00
2023-03-10T22:56:55.456Z,7.22
2023-03-10T22:59:22.380Z,5.70
2023-03-10T23:01:49.301Z,7.68
2023-03-10T23:04:16.023Z,5.20
2023-03-10T23:06:42.745Z,6.10
2023-03-10T23:09:10.870Z,7.20
2023-03-10T23:11:37.970Z,9.68
2023-03-10T23:14:04.806Z,6.72
2023-03-10T23:16:52.603Z,14.65
2023-03-10T23:19:40.155Z,7.90
2023-03-10T23:22:26.291Z,3.15
2023-03-10T23:24:54.027Z,8.63
2023-03-10T23:27:20.863Z,4.90
2023-03-10T23:29:47.676Z,7.90
2023-03-10T23:32:14.418Z,8.60
2023-03-10T23:34:41.164Z,7.00
2023-03-10T23:37:08.655Z,7.53
2023-03-10T23:39:40.627Z,10.27
2023-03-10T23:42:09.622Z,10.43
2023-03-10T23:44:36.570Z,14.47
2023-03-10T23:47:06.434Z,15.43
2023-03-10T23:49:36.004Z,15.40
2023-03-10T23:52:03.287Z,16.43
2023-03-10T23:54:30.406Z,17.95
2023-03-10T23:56:57.158Z,16.30
2023-03-10T23:59:24.584Z,20.47
